Time;durP1;ratioP1;P1;durP2;ratioP2;P2;SDS_P1;SDS_P2;PMS_P1;PMS_P2;Temp;Humidity;BMP_temperature;BMP_pressure;BME280_temperature;BME280_humidity;BME280_pressure;Samples;Min_cycle;Max_cycle;Signal;HPM_P1;HPM_P2
2023/06/04 00:00:51;;;;;;;23.97;22.87;;;22.00;40.20;;;;;;5037993;28;20566;-51
2023/06/04 00:03:18;;;;;;;23.23;22.13;;;22.00;40.20;;;;;;5058642;28;20467;-52
2023/06/04 00:05:45;;;;;;;22.77;21.67;;;21.90;40.20;;;;;;5058729;28;20860;-52
2023/06/04 00:08:13;;;;;;;25.23;23.93;;;22.00;40.40;;;;;;5059107;28;20845;-53
2023/06/04 00:10:40;;;;;;;26.73;25.30;;;21.90;40.30;;;;;;5058696;28;20507;-52
2023/06/04 00:13:07;;;;;;;27.70;26.20;;;21.90;40.40;;;;;;5056793;28;20456;-52
2023/06/04 00:15:34;;;;;;;26.00;24.70;;;21.90;40.40;;;;;;5057662;28;20518;-53
2023/06/04 00:18:01;;;;;;;26.67;25.23;;;21.90;40.40;;;;;;5057974;28;20479;-52
2023/06/04 00:20:28;;;;;;;24.20;23.03;;;21.90;40.50;;;;;;5057476;28;20494;-53
2023/06/04 00:22:54;;;;;;;23.03;22.03;;;21.90;40.60;;;;;;5057465;28;20467;-53
2023/06/04 00:25:23;;;;;;;24.97;23.63;;;21.90;41.20;;;;;;5058414;28;20494;-54
2023/06/04 00:27:50;;;;;;;22.40;21.40;;;21.90;41.10;;;;;;5057254;28;20871;-54
2023/06/04 00:30:17;;;;;;;21.70;20.80;;;21.80;41.10;;;;;;5057577;28;20500;-54
2023/06/04 00:32:44;;;;;;;21.67;20.73;;;21.90;41.20;;;;;;5057197;28;20582;-54
2023/06/04 00:35:11;;;;;;;21.53;20.63;;;21.90;41.10;;;;;;5056208;28;20613;-53
2023/06/04 00:37:38;;;;;;;21.67;20.77;;;21.90;40.80;;;;;;5056243;28;20514;-53
2023/06/04 00:40:07;;;;;;;22.33;21.43;;;21.90;40.70;;;;;;5048481;28;20964;-53
2023/06/04 00:42:35;;;;;;;23.10;22.10;;;21.90;40.60;;;;;;5036264;28;20449;-53
2023/06/04 00:45:02;;;;;;;23.80;22.70;;;21.80;40.70;;;;;;5035288;28;20473;-54
2023/06/04 00:47:29;;;;;;;23.30;22.10;;;21.80;40.70;;;;;;5035882;28;20485;-55
2023/06/04 00:49:58;;;;;;;22.70;21.70;;;21.80;40.70;;;;;;5035665;28;20532;-53
2023/06/04 00:52:26;;;;;;;22.80;21.80;;;21.80;40.70;;;;;;5035960;28;20461;-53
2023/06/04 00:54:54;;;;;;;23.37;22.37;;;21.80;40.80;;;;;;5036280;28;20493;-53
2023/06/04 00:57:22;;;;;;;22.60;21.60;;;21.80;41.10;;;;;;5048334;28;20940;-54
2023/06/04 00:59:50;;;;;;;21.20;20.40;;;21.80;41.10;;;;;;5056440;28;20448;-53
2023/06/04 01:02:23;;;;;;;20.77;19.87;;;21.80;41.00;;;;;;5056447;28;20503;-53
2023/06/04 01:04:59;;;;;;;21.50;20.50;;;21.80;40.80;;;;;;5057126;28;20466;-55
2023/06/04 01:07:28;;;;;;;21.90;21.10;;;21.80;40.90;;;;;;5058030;28;20475;-55
2023/06/04 01:09:56;;;;;;;21.60;20.70;;;21.80;40.90;;;;;;5056412;28;20444;-52
2023/06/04 01:12:23;;;;;;;21.20;20.30;;;21.80;41.20;;;;;;5056052;28;20817;-52
2023/06/04 01:14:51;;;;;;;21.10;20.20;;;21.70;41.20;;;;;;5055547;28;20526;-54
2023/06/04 01:17:23;;;;;;;21.33;20.53;;;21.70;40.90;;;;;;5052440;28;20491;-55
2023/06/04 01:20:14;;;;;;;22.47;21.60;;;21.70;41.00;;;;;;5040116;28;20508;-57
2023/06/04 01:22:49;;;;;;;21.17;20.37;;;21.70;41.00;;;;;;5047649;28;20890;-55
2023/06/04 01:25:21;;;;;;;21.83;20.93;;;21.80;40.90;;;;;;5056135;28;20444;-56
2023/06/04 01:27:52;;;;;;;20.80;20.00;;;21.80;40.80;;;;;;5044130;28;20853;-51
2023/06/04 01:30:24;;;;;;;20.90;20.10;;;21.70;40.70;;;;;;5055492;28;20830;-54
2023/06/04 01:32:51;;;;;;;21.00;20.30;;;21.80;40.80;;;;;;5055536;28;20472;-55
2023/06/04 01:35:18;;;;;;;22.17;21.27;;;21.70;40.80;;;;;;5055241;28;20515;-54
2023/06/04 01:37:45;;;;;;;21.40;20.60;;;21.70;41.20;;;;;;5050464;28;20476;-54
2023/06/04 01:40:12;;;;;;;20.63;19.90;;;21.70;41.00;;;;;;5055102;28;20527;-52
2023/06/04 01:42:39;;;;;;;20.93;20.13;;;21.70;41.00;;;;;;5054879;28;20480;-50
2023/06/04 01:45:07;;;;;;;20.40;19.50;;;21.70;41.00;;;;;;5054595;28;20447;-55
2023/06/04 01:47:35;;;;;;;20.17;19.47;;;21.70;41.00;;;;;;5043320;28;20445;-53
2023/06/04 01:50:02;;;;;;;21.20;20.30;;;21.70;41.20;;;;;;5034054;28;20437;-54
2023/06/04 01:52:29;;;;;;;20.90;20.10;;;21.70;41.20;;;;;;5034118;28;20552;-55
2023/06/04 01:54:57;;;;;;;20.20;19.50;;;21.70;41.30;;;;;;5037218;28;20508;-54
2023/06/04 01:57:24;;;;;;;21.10;20.30;;;21.60;41.60;;;;;;5054577;28;20452;-55
2023/06/04 01:59:51;;;;;;;20.60;19.87;;;21.60;42.00;;;;;;5054274;28;20472;-57
2023/06/04 02:02:18;;;;;;;20.40;19.60;;;21.70;41.90;;;;;;5054204;28;20451;-54
2023/06/04 02:04:46;;;;;;;21.00;20.23;;;21.60;41.70;;;;;;5054700;28;20578;-53
2023/06/04 02:07:17;;;;;;;20.60;19.90;;;21.60;41.60;;;;;;5055401;28;20881;-55
2023/06/04 02:09:44;;;;;;;21.07;20.27;;;21.60;41.50;;;;;;5054904;28;20440;-53
2023/06/04 02:12:11;;;;;;;20.50;19.73;;;21.60;41.70;;;;;;5049502;28;20500;-54
2023/06/04 02:14:38;;;;;;;21.13;20.33;;;21.60;41.70;;;;;;5034315;28;20468;-56
2023/06/04 02:17:12;;;;;;;21.90;21.10;;;21.60;41.60;;;;;;5035121;28;20505;-53
2023/06/04 02:19:39;;;;;;;21.17;20.17;;;21.60;41.50;;;;;;5034340;28;20456;-54
2023/06/04 02:22:08;;;;;;;20.53;19.73;;;21.60;41.40;;;;;;5037588;28;20499;-54
2023/06/04 02:24:34;;;;;;;20.90;20.00;;;21.60;41.40;;;;;;5053889;28;20483;-53
2023/06/04 02:27:01;;;;;;;20.83;20.10;;;21.60;41.40;;;;;;5053773;28;20471;-52
2023/06/04 02:29:28;;;;;;;23.53;22.73;;;21.60;41.60;;;;;;5053790;28;20513;-54
2023/06/04 02:31:55;;;;;;;24.80;23.80;;;21.60;41.50;;;;;;5053280;28;20518;-55
2023/06/04 02:34:23;;;;;;;22.93;22.03;;;21.60;41.30;;;;;;5053603;28;20528;-52
2023/06/04 02:36:50;;;;;;;23.30;22.40;;;21.50;41.30;;;;;;5053663;28;20483;-52
2023/06/04 02:39:19;;;;;;;24.60;23.70;;;21.50;41.30;;;;;;5053522;28;20490;-54
2023/06/04 02:41:46;;;;;;;23.60;22.80;;;21.60;41.40;;;;;;5091535;23;20519;-56
2023/06/04 02:44:13;;;;;;;23.33;22.43;;;21.60;41.50;;;;;;5080346;28;20949;-51
2023/06/04 02:46:40;;;;;;;23.50;22.60;;;21.50;41.50;;;;;;5071541;28;20471;-51
2023/06/04 02:49:07;;;;;;;23.63;22.73;;;21.50;41.60;;;;;;5071657;28;20530;-50
2023/06/04 02:51:34;;;;;;;23.33;22.53;;;21.50;41.50;;;;;;5071235;28;20495;-50
2023/06/04 02:54:01;;;;;;;23.43;22.53;;;21.50;41.60;;;;;;5071238;28;20534;-52
2023/06/04 02:56:30;;;;;;;23.07;22.27;;;21.50;41.60;;;;;;5070497;28;20576;-50
2023/06/04 02:58:57;;;;;;;23.50;22.70;;;21.40;41.70;;;;;;5066831;28;21011;-52
2023/06/04 03:01:25;;;;;;;21.27;20.53;;;21.40;41.70;;;;;;5051351;28;20496;-50
2023/06/04 03:03:53;;;;;;;20.60;19.80;;;21.50;41.80;;;;;;5051184;28;20456;-50
2023/06/04 03:06:22;;;;;;;20.67;19.87;;;21.50;41.90;;;;;;5051449;28;20495;-52
2023/06/04 03:08:51;;;;;;;20.73;19.73;;;21.50;41.90;;;;;;5054269;28;20475;-50
2023/06/04 03:11:19;;;;;;;20.80;20.10;;;21.50;42.00;;;;;;5071308;28;20467;-50
2023/06/04 03:13:47;;;;;;;21.20;20.40;;;21.50;42.00;;;;;;5071219;28;20818;-53
2023/06/04 03:16:14;;;;;;;21.47;20.57;;;21.50;42.10;;;;;;5071128;28;20471;-52
2023/06/04 03:18:42;;;;;;;20.70;19.90;;;21.50;42.00;;;;;;5068967;28;20479;-50
2023/06/04 03:21:11;;;;;;;20.60;19.90;;;21.40;41.80;;;;;;5051102;28;20548;-49
2023/06/04 03:23:38;;;;;;;21.37;20.57;;;21.40;41.90;;;;;;5050927;28;20449;-52
2023/06/04 03:26:06;;;;;;;21.53;20.83;;;21.40;42.20;;;;;;5051318;28;20531;-55
2023/06/04 03:28:34;;;;;;;21.77;20.77;;;21.40;42.20;;;;;;5054322;28;20479;-54
2023/06/04 03:31:02;;;;;;;20.27;19.57;;;21.40;42.20;;;;;;5073902;28;20487;-52
2023/06/04 03:33:29;;;;;;;19.83;19.13;;;21.40;42.20;;;;;;5062826;28;20662;-52
2023/06/04 03:35:58;;;;;;;20.20;19.40;;;21.30;42.10;;;;;;5053879;28;20523;-49
2023/06/04 03:38:25;;;;;;;20.00;19.23;;;21.30;42.50;;;;;;5051176;28;20490;-49
2023/06/04 03:40:53;;;;;;;19.67;18.97;;;21.30;42.60;;;;;;5052210;28;20510;-54
2023/06/04 03:43:20;;;;;;;20.00;19.30;;;21.30;42.70;;;;;;5053318;28;20444;-53
2023/06/04 03:45:47;;;;;;;20.80;20.00;;;21.40;42.70;;;;;;5051681;28;20436;-52
2023/06/04 03:48:15;;;;;;;21.43;20.63;;;21.40;42.80;;;;;;5050885;28;20486;-52
2023/06/04 03:50:42;;;;;;;20.93;20.23;;;21.40;42.60;;;;;;5068549;28;20527;-51
2023/06/04 03:53:09;;;;;;;21.53;20.73;;;21.30;42.40;;;;;;5070698;28;20534;-49
2023/06/04 03:55:36;;;;;;;22.10;21.20;;;21.30;42.50;;;;;;5070824;28;20569;-49
2023/06/04 03:58:03;;;;;;;20.40;19.70;;;21.30;42.60;;;;;;5070856;28;20453;-50
2023/06/04 04:00:30;;;;;;;20.70;19.87;;;21.40;42.70;;;;;;5054339;28;20551;-52
2023/06/04 04:02:57;;;;;;;22.67;21.83;;;21.30;42.50;;;;;;5050563;28;20548;-57
2023/06/04 04:05:25;;;;;;;22.00;21.20;;;21.30;42.50;;;;;;5050839;28;20480;-49
2023/06/04 04:07:52;;;;;;;22.40;21.50;;;21.30;42.90;;;;;;5060926;28;20529;-49
2023/06/04 04:10:19;;;;;;;22.10;21.30;;;21.30;43.10;;;;;;5074296;28;20530;-50
2023/06/04 04:12:46;;;;;;;21.90;21.10;;;21.30;43.20;;;;;;5074387;28;20471;-53
2023/06/04 04:15:14;;;;;;;22.57;21.67;;;21.30;43.20;;;;;;5074114;28;20535;-51
2023/06/04 04:17:41;;;;;;;22.43;21.63;;;21.30;43.10;;;;;;5068121;28;20444;-53
2023/06/04 04:20:08;;;;;;;22.67;21.77;;;21.30;43.30;;;;;;5054166;28;20479;-55
2023/06/04 04:22:40;;;;;;;21.70;20.90;;;21.30;43.20;;;;;;5054101;28;20513;-53
2023/06/04 04:25:08;;;;;;;23.23;21.93;;;21.30;43.10;;;;;;5053986;28;20518;-49
2023/06/04 04:27:38;;;;;;;22.60;21.80;;;21.30;43.10;;;;;;5058822;28;20443;-48
2023/06/04 04:30:07;;;;;;;23.50;22.60;;;21.30;43.30;;;;;;5074153;28;20446;-52
2023/06/04 04:32:33;;;;;;;22.43;21.63;;;21.20;43.10;;;;;;5074222;28;20482;-48
2023/06/04 04:35:00;;;;;;;22.93;22.03;;;21.30;43.30;;;;;;5073700;28;20490;-50
2023/06/04 04:37:27;;;;;;;22.53;21.63;;;21.30;43.60;;;;;;5067519;28;20566;-50
2023/06/04 04:39:55;;;;;;;24.10;23.07;;;21.30;43.80;;;;;;5054036;28;20478;-49
2023/06/04 04:42:22;;;;;;;23.40;22.53;;;21.30;44.10;;;;;;5053741;28;20476;-51
2023/06/04 04:44:50;;;;;;;22.60;21.70;;;21.30;44.10;;;;;;5053733;28;20542;-51
2023/06/04 04:47:17;;;;;;;22.67;21.77;;;21.30;44.30;;;;;;5071853;28;20471;-51
2023/06/04 04:49:44;;;;;;;22.30;21.50;;;21.40;44.40;;;;;;5073790;28;20485;-49
2023/06/04 04:52:11;;;;;;;22.00;21.20;;;21.40;44.40;;;;;;5073520;28;20470;-53
2023/06/04 04:54:38;;;;;;;22.60;21.70;;;21.40;44.50;;;;;;5073374;28;20529;-48
2023/06/04 04:57:07;;;;;;;22.60;21.80;;;21.40;44.50;;;;;;5056918;28;20574;-51
2023/06/04 04:59:34;;;;;;;21.83;21.03;;;21.40;44.50;;;;;;5053640;28;20444;-52
2023/06/04 05:02:01;;;;;;;23.10;22.10;;;21.50;44.50;;;;;;5053388;28;20491;-48
2023/06/04 05:04:27;;;;;;;22.40;21.50;;;21.50;44.40;;;;;;5053303;28;20454;-47
2023/06/04 05:06:54;;;;;;;23.23;22.23;;;21.50;44.40;;;;;;5067572;28;20479;-47
2023/06/04 05:09:21;;;;;;;22.83;21.93;;;21.50;44.50;;;;;;5073291;28;20475;-50
2023/06/04 05:11:48;;;;;;;22.70;21.80;;;21.50;44.50;;;;;;5073251;28;20554;-49
2023/06/04 05:14:17;;;;;;;23.80;22.40;;;21.50;44.40;;;;;;5073006;28;20471;-50
2023/06/04 05:16:44;;;;;;;22.47;21.67;;;21.50;44.50;;;;;;5059859;28;20486;-54
2023/06/04 05:19:11;;;;;;;22.87;21.97;;;21.50;44.40;;;;;;5052122;28;20510;-48
2023/06/04 05:21:39;;;;;;;22.40;21.60;;;21.50;44.40;;;;;;5052998;28;20479;-54
2023/06/04 05:24:06;;;;;;;22.30;21.40;;;21.50;44.30;;;;;;5052584;28;20451;-53
2023/06/04 05:26:33;;;;;;;22.30;21.50;;;21.60;44.90;;;;;;5064156;28;20530;-54
2023/06/04 05:29:00;;;;;;;22.27;21.47;;;21.60;44.30;;;;;;5072704;28;20501;-54
2023/06/04 05:31:29;;;;;;;22.40;21.60;;;21.60;44.30;;;;;;5073058;28;20554;-50
2023/06/04 05:33:55;;;;;;;21.80;21.00;;;21.60;44.20;;;;;;5072372;28;20473;-51
2023/06/04 05:36:22;;;;;;;59.87;55.67;;;21.60;44.20;;;;;;5062867;28;20918;-50
2023/06/04 05:38:56;;;;;;;21.03;20.23;;;21.60;44.90;;;;;;5052786;28;20472;-52
2023/06/04 05:41:24;;;;;;;22.47;21.63;;;21.70;44.80;;;;;;5052598;28;20559;-52
2023/06/04 05:43:51;;;;;;;21.23;20.43;;;21.80;44.60;;;;;;5052399;28;20480;-55
2023/06/04 05:46:18;;;;;;;21.23;20.40;;;21.80;44.20;;;;;;5061138;28;20478;-50
2023/06/04 05:48:46;;;;;;;21.37;20.63;;;21.80;44.10;;;;;;5072206;28;20482;-56
2023/06/04 05:51:14;;;;;;;21.80;21.00;;;21.90;44.10;;;;;;5072488;28;20517;-50
2023/06/04 05:53:42;;;;;;;20.90;20.20;;;22.00;44.00;;;;;;5072327;28;20447;-50
2023/06/04 05:56:09;;;;;;;21.77;20.83;;;21.90;43.90;;;;;;5065609;28;20486;-51
2023/06/04 05:58:36;;;;;;;21.73;20.83;;;22.00;43.80;;;;;;5052484;28;20468;-50
2023/06/04 06:01:03;;;;;;;22.53;21.63;;;22.00;43.60;;;;;;5052296;28;20922;-55
2023/06/04 06:03:29;;;;;;;21.70;20.90;;;22.10;43.60;;;;;;5052114;28;20480;-50
2023/06/04 06:05:59;;;;;;;22.90;21.90;;;22.10;43.40;;;;;;5056257;28;20483;-50
2023/06/04 06:08:26;;;;;;;22.80;22.00;;;22.10;43.20;;;;;;5072157;28;20961;-50
2023/06/04 06:10:53;;;;;;;21.90;21.10;;;22.20;43.20;;;;;;5071985;28;20495;-50
2023/06/04 06:13:20;;;;;;;21.77;21.00;;;22.20;43.00;;;;;;5071868;28;20479;-50
2023/06/04 06:15:48;;;;;;;21.60;20.83;;;22.20;43.10;;;;;;5068851;28;20499;-55
2023/06/04 06:18:15;;;;;;;22.67;21.87;;;22.20;43.10;;;;;;5051976;28;20839;-57
2023/06/04 06:20:43;;;;;;;22.17;21.37;;;22.30;43.10;;;;;;5051949;28;20502;-56
2023/06/04 06:23:11;;;;;;;22.17;21.37;;;22.30;43.20;;;;;;5051784;28;20868;-55
2023/06/04 06:25:40;;;;;;;22.87;21.90;;;22.30;43.10;;;;;;5053029;28;20519;-54
2023/06/04 06:28:07;;;;;;;22.50;21.63;;;22.30;43.20;;;;;;5051877;28;20444;-53
2023/06/04 06:30:34;;;;;;;22.27;21.47;;;22.30;43.20;;;;;;5051493;28;20572;-50
2023/06/04 06:33:00;;;;;;;21.67;20.87;;;22.30;43.30;;;;;;5051763;28;20475;-52
2023/06/04 06:35:27;;;;;;;21.93;21.03;;;22.30;43.50;;;;;;5051522;28;20969;-55
2023/06/04 06:37:54;;;;;;;22.00;21.00;;;22.30;43.60;;;;;;5071374;28;21052;-51
2023/06/04 06:40:22;;;;;;;22.13;21.23;;;22.30;43.60;;;;;;5071356;28;20517;-55
2023/06/04 06:42:50;;;;;;;21.90;21.17;;;22.30;43.70;;;;;;5071681;28;20494;-57
2023/06/04 06:45:18;;;;;;;23.50;22.60;;;22.30;43.60;;;;;;5071489;28;20454;-55
2023/06/04 06:47:45;;;;;;;22.43;21.40;;;22.30;43.60;;;;;;5053031;28;20528;-56
2023/06/04 06:50:12;;;;;;;21.80;21.00;;;22.40;44.30;;;;;;5051390;28;20487;-53
2023/06/04 06:52:39;;;;;;;22.43;21.10;;;22.40;44.00;;;;;;5051467;28;20472;-52
2023/06/04 06:55:07;;;;;;;21.50;20.70;;;22.40;43.70;;;;;;5061263;28;20811;-55
2023/06/04 06:57:35;;;;;;;22.80;21.70;;;22.40;43.50;;;;;;5071445;28;20518;-54
2023/06/04 07:00:04;;;;;;;22.33;21.53;;;22.40;43.50;;;;;;5071482;28;20443;-53
2023/06/04 07:02:31;;;;;;;23.17;21.87;;;22.50;43.80;;;;;;5071294;28;20496;-51
2023/06/04 07:04:58;;;;;;;22.30;21.40;;;22.60;44.10;;;;;;5062299;28;20527;-55
2023/06/04 07:07:26;;;;;;;22.40;21.50;;;22.70;44.80;;;;;;5051450;28;20495;-56
2023/06/04 07:09:53;;;;;;;27.57;25.43;;;22.70;45.20;;;;;;5051407;28;20470;-52
2023/06/04 07:12:20;;;;;;;24.30;22.90;;;22.70;45.50;;;;;;5051135;28;20547;-55
2023/06/04 07:14:48;;;;;;;24.63;23.03;;;22.80;46.90;;;;;;5051383;28;20445;-57
2023/06/04 07:17:15;;;;;;;22.90;22.00;;;22.80;46.80;;;;;;5051107;28;20519;-58
2023/06/04 07:19:42;;;;;;;23.57;22.30;;;22.90;46.10;;;;;;5051625;28;20539;-58
2023/06/04 07:22:10;;;;;;;22.43;21.33;;;22.90;46.50;;;;;;5051837;28;20507;-56
2023/06/04 07:24:37;;;;;;;24.07;23.00;;;22.90;46.00;;;;;;5064823;28;20543;-54
2023/06/04 07:27:11;;;;;;;23.80;22.70;;;23.00;46.10;;;;;;5051224;28;20487;-58
2023/06/04 07:29:38;;;;;;;26.70;24.20;;;23.00;45.90;;;;;;5051436;28;20530;-51
2023/06/04 07:32:07;;;;;;;24.63;23.53;;;22.90;45.70;;;;;;5051114;28;20510;-57
2023/06/04 07:34:33;;;;;;;24.20;23.00;;;22.90;45.70;;;;;;5050611;28;20494;-55
2023/06/04 07:37:00;;;;;;;23.30;22.30;;;22.90;45.60;;;;;;5051099;28;20502;-59
2023/06/04 07:39:27;;;;;;;23.93;22.63;;;22.90;45.70;;;;;;5051290;28;20448;-57
2023/06/04 07:41:54;;;;;;;24.10;22.97;;;22.80;45.60;;;;;;5052058;28;20509;-55
2023/06/04 07:44:21;;;;;;;23.67;22.70;;;22.80;45.50;;;;;;5054826;28;20448;-58
2023/06/04 07:46:48;;;;;;;23.50;22.50;;;22.80;45.60;;;;;;5055274;28;20479;-55
2023/06/04 07:49:16;;;;;;;23.23;22.23;;;22.70;45.70;;;;;;5054830;28;20444;-55
2023/06/04 07:51:43;;;;;;;23.47;22.57;;;22.70;45.80;;;;;;5054766;28;21008;-59
2023/06/04 07:54:11;;;;;;;23.10;22.10;;;22.70;45.80;;;;;;5055085;28;20509;-56
2023/06/04 07:56:38;;;;;;;24.47;23.27;;;22.60;45.80;;;;;;5055020;28;20444;-57
2023/06/04 07:59:05;;;;;;;23.67;22.37;;;22.70;46.00;;;;;;5054747;28;20476;-55
2023/06/04 08:01:32;;;;;;;23.03;22.13;;;22.60;46.00;;;;;;5054815;28;20507;-55
2023/06/04 08:03:59;;;;;;;23.07;22.10;;;22.70;46.00;;;;;;5054717;28;20523;-51
2023/06/04 08:06:28;;;;;;;23.37;22.47;;;22.60;46.00;;;;;;5054562;28;20443;-52
2023/06/04 08:08:55;;;;;;;22.87;22.00;;;22.60;46.00;;;;;;5054542;28;20483;-53
2023/06/04 08:11:22;;;;;;;22.63;21.73;;;22.60;46.10;;;;;;5054384;28;20526;-55
2023/06/04 08:13:49;;;;;;;23.20;22.20;;;22.60;46.10;;;;;;5054225;28;20520;-56
2023/06/04 08:16:16;;;;;;;23.30;22.40;;;22.60;46.10;;;;;;5054367;28;20490;-55
2023/06/04 08:18:43;;;;;;;22.83;22.03;;;22.50;46.00;;;;;;5054256;28;20510;-55
2023/06/04 08:21:11;;;;;;;23.40;22.50;;;22.50;46.10;;;;;;5054266;28;20559;-57
2023/06/04 08:23:40;;;;;;;23.20;22.20;;;22.50;46.00;;;;;;5053976;28;20451;-53
2023/06/04 08:26:07;;;;;;;22.63;21.70;;;22.50;46.10;;;;;;5054239;28;20511;-58
2023/06/04 08:28:35;;;;;;;23.17;22.17;;;22.40;46.10;;;;;;5054040;28;20548;-55
2023/06/04 08:31:01;;;;;;;23.00;22.10;;;22.40;46.10;;;;;;5054330;28;20470;-60
2023/06/04 08:33:28;;;;;;;23.40;22.50;;;22.40;46.10;;;;;;5054572;28;20478;-58
2023/06/04 08:35:55;;;;;;;22.40;21.40;;;22.40;46.10;;;;;;5054949;28;20487;-59
2023/06/04 08:38:22;;;;;;;23.47;22.47;;;22.50;46.10;;;;;;5053993;28;20487;-54
2023/06/04 08:40:58;;;;;;;22.93;21.93;;;22.40;46.00;;;;;;5054378;28;20532;-54
2023/06/04 08:43:26;;;;;;;22.97;22.07;;;22.40;45.90;;;;;;5053681;28;20444;-58
2023/06/04 08:45:59;;;;;;;22.70;21.80;;;22.40;45.90;;;;;;5053732;28;20471;-59
2023/06/04 08:48:27;;;;;;;22.63;21.83;;;22.40;45.90;;;;;;5053779;28;20479;-54
2023/06/04 08:50:57;;;;;;;23.33;22.47;;;22.40;46.00;;;;;;5053696;28;20522;-52
2023/06/04 08:53:24;;;;;;;22.70;21.87;;;22.40;46.00;;;;;;5053686;28;20490;-53
2023/06/04 08:55:54;;;;;;;22.37;21.57;;;22.30;45.90;;;;;;5053661;28;20483;-56
2023/06/04 08:58:22;;;;;;;22.77;21.93;;;22.40;46.00;;;;;;5053530;28;20570;-55
2023/06/04 09:00:49;;;;;;;22.60;21.70;;;22.40;45.90;;;;;;5053483;28;20499;-54
2023/06/04 09:03:17;;;;;;;22.30;21.50;;;22.40;45.90;;;;;;5053464;28;20506;-56
2023/06/04 09:05:47;;;;;;;23.43;22.53;;;22.40;45.80;;;;;;5053296;28;20824;-53
2023/06/04 09:08:16;;;;;;;23.00;22.10;;;22.40;45.80;;;;;;5053348;28;20494;-55
2023/06/04 09:10:46;;;;;;;23.43;22.33;;;22.40;45.70;;;;;;5053347;28;20469;-56
2023/06/04 09:13:16;;;;;;;22.53;21.73;;;22.40;45.60;;;;;;5053288;28;20448;-57
2023/06/04 09:15:42;;;;;;;22.50;21.70;;;22.40;45.60;;;;;;5053025;28;20479;-53
2023/06/04 09:18:09;;;;;;;22.53;21.73;;;22.40;45.60;;;;;;5053153;28;20575;-55
2023/06/04 09:20:36;;;;;;;22.93;21.77;;;22.30;45.30;;;;;;5053137;28;20875;-56
2023/06/04 09:23:13;;;;;;;22.77;21.87;;;22.30;45.20;;;;;;5053172;28;20472;-52
2023/06/04 09:25:43;;;;;;;22.67;21.67;;;22.30;45.20;;;;;;5052859;28;20482;-55
2023/06/04 09:28:10;;;;;;;21.50;20.70;;;22.30;45.20;;;;;;5053029;28;20475;-54
2023/06/04 09:30:38;;;;;;;22.10;21.30;;;22.30;45.10;;;;;;5052774;28;20566;-53
2023/06/04 09:33:09;;;;;;;22.03;21.20;;;22.30;45.10;;;;;;5052948;28;20480;-53
2023/06/04 09:35:36;;;;;;;23.07;22.17;;;22.30;45.10;;;;;;5052693;28;20519;-55
2023/06/04 09:38:03;;;;;;;23.13;21.97;;;22.30;45.20;;;;;;5052718;28;20492;-57
2023/06/04 09:40:37;;;;;;;22.57;21.77;;;22.30;45.20;;;;;;5052530;28;20514;-54
2023/06/04 09:43:04;;;;;;;22.47;21.67;;;22.30;45.20;;;;;;5052727;28;20447;-56
2023/06/04 09:45:32;;;;;;;22.17;21.27;;;22.30;45.10;;;;;;5052483;28;20480;-60
2023/06/04 09:48:01;;;;;;;21.90;21.10;;;22.30;45.20;;;;;;5053618;28;20587;-60
2023/06/04 09:50:30;;;;;;;22.63;21.80;;;22.30;45.10;;;;;;5052738;28;20468;-53
2023/06/04 09:52:57;;;;;;;22.50;21.60;;;22.30;45.10;;;;;;5052545;28;20869;-54
2023/06/04 09:55:25;;;;;;;22.53;21.73;;;22.30;45.10;;;;;;5052410;28;20891;-54
2023/06/04 09:57:53;;;;;;;23.23;22.23;;;22.30;45.10;;;;;;5052372;28;20480;-55
2023/06/04 10:00:22;;;;;;;22.80;21.90;;;22.30;45.10;;;;;;5052284;28;20476;-53
2023/06/04 10:02:50;;;;;;;22.67;21.87;;;22.30;45.00;;;;;;5052401;28;20456;-58
2023/06/04 10:05:21;;;;;;;22.93;22.03;;;22.30;45.00;;;;;;5051674;28;20456;-53
2023/06/04 10:07:51;;;;;;;22.87;22.00;;;22.30;45.00;;;;;;5052342;28;20883;-55
2023/06/04 10:10:22;;;;;;;23.13;22.23;;;22.30;45.00;;;;;;5052290;28;20445;-53
2023/06/04 10:12:55;;;;;;;22.10;21.30;;;22.30;45.00;;;;;;5052205;28;20483;-52
2023/06/04 10:15:22;;;;;;;22.97;22.07;;;22.30;44.90;;;;;;5052026;28;20872;-52
2023/06/04 10:17:50;;;;;;;23.03;22.00;;;22.30;44.80;;;;;;5052101;28;20575;-54
2023/06/04 10:20:20;;;;;;;23.10;22.20;;;22.30;44.90;;;;;;5051905;28;20487;-55
2023/06/04 10:22:50;;;;;;;22.30;21.50;;;22.30;44.80;;;;;;5052003;28;20502;-55
2023/06/04 10:25:17;;;;;;;22.97;22.17;;;22.30;44.70;;;;;;5051859;28;20502;-52
2023/06/04 10:27:45;;;;;;;23.50;22.60;;;22.30;44.70;;;;;;5051838;28;20436;-54
2023/06/04 10:30:13;;;;;;;23.00;22.10;;;22.30;44.70;;;;;;5051740;28;20476;-54
2023/06/04 10:32:40;;;;;;;23.43;22.53;;;22.30;44.60;;;;;;5051677;28;20510;-52
2023/06/04 10:35:07;;;;;;;23.33;22.43;;;22.30;44.70;;;;;;5051564;28;20487;-54
2023/06/04 10:37:36;;;;;;;22.20;21.40;;;22.30;44.60;;;;;;5051731;28;20530;-55
2023/06/04 10:40:04;;;;;;;22.67;21.87;;;22.30;45.00;;;;;;5051826;28;20448;-55
2023/06/04 10:42:40;;;;;;;23.50;22.53;;;22.30;44.40;;;;;;5051581;28;20550;-53
2023/06/04 10:45:11;;;;;;;23.40;22.50;;;22.30;44.30;;;;;;5051396;28;20934;-57
2023/06/04 10:47:40;;;;;;;22.83;21.90;;;22.30;44.30;;;;;;5051546;28;20464;-58
2023/06/04 10:50:09;;;;;;;22.70;21.80;;;22.40;44.40;;;;;;5051458;28;20455;-54
2023/06/04 10:52:38;;;;;;;22.83;21.93;;;22.30;44.30;;;;;;5051482;28;20491;-59
2023/06/04 10:55:06;;;;;;;22.60;21.80;;;22.40;44.50;;;;;;5051249;28;20456;-57
2023/06/04 10:57:33;;;;;;;23.00;22.10;;;22.40;44.50;;;;;;5051373;28;20534;-57
2023/06/04 11:00:05;;;;;;;23.23;22.33;;;22.40;44.40;;;;;;5051366;28;20544;-56
2023/06/04 11:02:32;;;;;;;23.00;22.00;;;22.40;44.50;;;;;;5051362;28;20521;-58
2023/06/04 11:05:03;;;;;;;23.60;22.60;;;22.40;44.60;;;;;;5051193;28;20480;-58
2023/06/04 11:07:30;;;;;;;23.43;22.53;;;22.30;44.40;;;;;;5051397;28;20472;-58
2023/06/04 11:09:58;;;;;;;23.03;22.23;;;22.40;44.40;;;;;;5051350;28;20475;-59
2023/06/04 11:12:25;;;;;;;23.80;22.80;;;22.40;44.40;;;;;;5051313;28;20894;-57
2023/06/04 11:14:55;;;;;;;24.10;23.00;;;22.40;44.40;;;;;;5051176;28;20475;-57
2023/06/04 11:17:22;;;;;;;22.80;21.80;;;22.40;44.40;;;;;;5053396;28;20452;-56
2023/06/04 11:19:49;;;;;;;23.30;22.40;;;22.40;44.50;;;;;;5055297;28;20484;-56
2023/06/04 11:22:16;;;;;;;23.10;22.20;;;22.40;44.50;;;;;;5055250;28;20551;-59
2023/06/04 11:24:43;;;;;;;23.83;22.73;;;22.40;44.40;;;;;;5055143;28;20482;-58
2023/06/04 11:27:12;;;;;;;23.10;22.20;;;22.40;44.30;;;;;;5055308;28;20853;-56
2023/06/04 11:29:39;;;;;;;23.57;22.57;;;22.40;44.20;;;;;;5055345;28;20440;-56
2023/06/04 11:32:06;;;;;;;23.60;22.70;;;22.40;44.30;;;;;;5055218;28;21017;-58
2023/06/04 11:34:33;;;;;;;23.13;22.23;;;22.40;44.30;;;;;;5054883;28;20531;-56
2023/06/04 11:37:09;;;;;;;22.70;21.80;;;22.40;44.40;;;;;;5055116;28;20447;-57
2023/06/04 11:39:38;;;;;;;22.40;21.50;;;22.40;44.40;;;;;;5054930;28;20937;-58
2023/06/04 11:42:07;;;;;;;23.27;22.27;;;22.50;44.50;;;;;;5054703;28;20555;-56
2023/06/04 11:44:35;;;;;;;22.40;21.30;;;22.50;44.40;;;;;;5054741;28;20494;-56
2023/06/04 11:47:05;;;;;;;22.40;21.60;;;22.50;44.40;;;;;;5054930;28;20958;-57
2023/06/04 11:49:32;;;;;;;22.43;21.60;;;22.50;44.40;;;;;;5054931;28;20444;-55
2023/06/04 11:52:00;;;;;;;23.40;22.50;;;22.50;44.40;;;;;;5054858;28;20466;-56
2023/06/04 11:54:27;;;;;;;23.10;22.17;;;22.50;44.40;;;;;;5054582;28;20475;-57
2023/06/04 11:56:54;;;;;;;23.03;22.23;;;22.50;44.40;;;;;;5054681;28;20452;-57
2023/06/04 11:59:21;;;;;;;23.27;22.37;;;22.50;44.50;;;;;;5054710;28;20563;-55
2023/06/04 12:01:50;;;;;;;23.00;22.10;;;22.50;45.00;;;;;;5054710;28;20877;-56
2023/06/04 12:04:18;;;;;;;22.67;21.77;;;22.50;44.50;;;;;;5054404;28;20498;-57
2023/06/04 12:06:53;;;;;;;21.80;21.00;;;22.50;44.30;;;;;;5054576;28;20444;-56
2023/06/04 12:09:24;;;;;;;22.53;21.50;;;22.50;44.30;;;;;;5054491;28;20547;-58
2023/06/04 12:11:51;;;;;;;22.40;21.50;;;22.50;44.30;;;;;;5054388;28;20480;-59
2023/06/04 12:14:19;;;;;;;23.10;22.10;;;22.60;44.30;;;;;;5054274;28;20494;-54
2023/06/04 12:16:57;;;;;;;22.97;22.10;;;22.50;44.20;;;;;;5054420;28;20452;-58
2023/06/04 12:19:24;;;;;;;22.43;21.63;;;22.60;44.30;;;;;;5054310;28;20483;-56
2023/06/04 12:22:02;;;;;;;23.20;22.30;;;22.50;44.30;;;;;;5054248;28;20464;-56
2023/06/04 12:24:29;;;;;;;23.30;22.40;;;22.60;44.40;;;;;;5054145;28;20811;-58
2023/06/04 12:27:08;;;;;;;23.33;22.43;;;22.60;44.50;;;;;;5054096;28;20448;-58
2023/06/04 12:29:35;;;;;;;24.00;22.90;;;22.60;44.40;;;;;;5054185;28;20841;-56
2023/06/04 12:32:07;;;;;;;23.00;22.10;;;22.60;44.40;;;;;;5054045;28;20536;-58